sensor_id;sensor_type;location;lat;lon;timestamp;pressure;altitude;pressure_sealevel;temperature;humidity
44385;BME280;30101;32.778;34.994;2022-08-21T00:03:51;96822.44;;;25.09;78.68
44385;BME280;30101;32.778;34.994;2022-08-21T00:08:54;96820.19;;;25.11;79.00
44385;BME280;30101;32.778;34.994;2022-08-21T00:13:59;96824.16;;;25.14;78.90
44385;BME280;30101;32.778;34.994;2022-08-21T00:19:03;96823.72;;;25.12;78.86
44385;BME280;30101;32.778;34.994;2022-08-21T00:24:07;96812.31;;;25.10;79.18
44385;BME280;30101;32.778;34.994;2022-08-21T00:29:10;96825.19;;;25.09;79.37
44385;BME280;30101;32.778;34.994;2022-08-21T00:34:14;96821.16;;;25.07;79.12
44385;BME280;30101;32.778;34.994;2022-08-21T00:39:18;96819.56;;;25.06;79.60
44385;BME280;30101;32.778;34.994;2022-08-21T00:44:21;96816.81;;;25.06;79.73
44385;BME280;30101;32.778;34.994;2022-08-21T00:49:25;96816.66;;;25.02;79.56
44385;BME280;30101;32.778;34.994;2022-08-21T00:54:31;96808.63;;;25.06;79.54
44385;BME280;30101;32.778;34.994;2022-08-21T00:59:37;96813.28;;;25.05;79.60
44385;BME280;30101;32.778;34.994;2022-08-21T01:04:41;96803.97;;;25.06;79.64
44385;BME280;30101;32.778;34.994;2022-08-21T01:09:46;96814.09;;;25.06;80.17
44385;BME280;30101;32.778;34.994;2022-08-21T01:14:50;96809.56;;;25.01;79.78
44385;BME280;30101;32.778;34.994;2022-08-21T01:19:57;96813.44;;;25.00;80.02
44385;BME280;30101;32.778;34.994;2022-08-21T01:25:04;96823.88;;;24.98;80.40
44385;BME280;30101;32.778;34.994;2022-08-21T01:30:12;96818.59;;;24.93;80.41
44385;BME280;30101;32.778;34.994;2022-08-21T01:35:18;96825.19;;;24.92;80.33
44385;BME280;30101;32.778;34.994;2022-08-21T01:40:22;96834.84;;;24.89;80.30
44385;BME280;30101;32.778;34.994;2022-08-21T01:45:30;96832.75;;;24.86;80.76
44385;BME280;30101;32.778;34.994;2022-08-21T01:50:37;96831.63;;;24.87;80.53
44385;BME280;30101;32.778;34.994;2022-08-21T01:55:49;96836.16;;;24.83;80.68
44385;BME280;30101;32.778;34.994;2022-08-21T02:00:52;96836.16;;;24.83;80.84
44385;BME280;30101;32.778;34.994;2022-08-21T02:05:56;96830.97;;;24.82;80.57
44385;BME280;30101;32.778;34.994;2022-08-21T02:10:59;96823.94;;;24.81;80.99
44385;BME280;30101;32.778;34.994;2022-08-21T02:16:03;96834.50;;;24.82;80.78
44385;BME280;30101;32.778;34.994;2022-08-21T02:21:07;96834.69;;;24.86;81.18
44385;BME280;30101;32.778;34.994;2022-08-21T02:26:11;96838.69;;;24.88;80.82
44385;BME280;30101;32.778;34.994;2022-08-21T02:31:14;96833.72;;;24.90;81.19
44385;BME280;30101;32.778;34.994;2022-08-21T02:36:18;96844.47;;;24.87;81.08
44385;BME280;30101;32.778;34.994;2022-08-21T02:41:23;96847.06;;;24.83;81.11
44385;BME280;30101;32.778;34.994;2022-08-21T02:46:27;96849.16;;;24.78;81.50
44385;BME280;30101;32.778;34.994;2022-08-21T02:51:31;96852.06;;;24.72;81.33
44385;BME280;30101;32.778;34.994;2022-08-21T02:56:34;96860.88;;;24.69;81.45
44385;BME280;30101;32.778;34.994;2022-08-21T03:01:38;96863.94;;;24.68;81.50
44385;BME280;30101;32.778;34.994;2022-08-21T03:06:42;96864.59;;;24.65;81.86
44385;BME280;30101;32.778;34.994;2022-08-21T03:11:45;96862.97;;;24.64;82.12
44385;BME280;30101;32.778;34.994;2022-08-21T03:16:48;96860.09;;;24.60;82.05
44385;BME280;30101;32.778;34.994;2022-08-21T03:21:51;96865.09;;;24.58;81.80
44385;BME280;30101;32.778;34.994;2022-08-21T03:26:55;96867.00;;;24.58;82.31
44385;BME280;30101;32.778;34.994;2022-08-21T03:31:59;96869.75;;;24.58;81.95
44385;BME280;30101;32.778;34.994;2022-08-21T03:37:04;96872.16;;;24.59;82.10
44385;BME280;30101;32.778;34.994;2022-08-21T03:42:08;96871.34;;;24.59;82.23
44385;BME280;30101;32.778;34.994;2022-08-21T03:47:11;96871.50;;;24.62;82.38
44385;BME280;30101;32.778;34.994;2022-08-21T03:52:15;96866.53;;;24.64;82.22
44385;BME280;30101;32.778;34.994;2022-08-21T03:57:19;96876.78;;;24.67;81.93
44385;BME280;30101;32.778;34.994;2022-08-21T04:02:22;96881.28;;;24.72;82.41
44385;BME280;30101;32.778;34.994;2022-08-21T04:07:29;96872.94;;;24.77;81.96
44385;BME280;30101;32.778;34.994;2022-08-21T04:12:32;96877.91;;;24.84;81.89
44385;BME280;30101;32.778;34.994;2022-08-21T04:17:35;96882.88;;;24.90;81.71
44385;BME280;30101;32.778;34.994;2022-08-21T04:22:39;96882.03;;;24.98;81.56
44385;BME280;30101;32.778;34.994;2022-08-21T04:27:43;96885.09;;;25.06;81.52
44385;BME280;30101;32.778;34.994;2022-08-21T04:32:48;96889.28;;;25.12;81.55
44385;BME280;30101;32.778;34.994;2022-08-21T04:37:52;96886.84;;;25.19;81.21
44385;BME280;30101;32.778;34.994;2022-08-21T04:43:00;96894.81;;;25.33;80.91
44385;BME280;30101;32.778;34.994;2022-08-21T04:48:12;96907.81;;;25.44;80.66
44385;BME280;30101;32.778;34.994;2022-08-21T04:58:40;96889.94;;;25.55;80.41
44385;BME280;30101;32.778;34.994;2022-08-21T05:03:44;96893.09;;;25.66;80.24
44385;BME280;30101;32.778;34.994;2022-08-21T05:08:51;96893.53;;;25.77;80.06
44385;BME280;30101;32.778;34.994;2022-08-21T05:14:04;96899.78;;;25.86;79.51
44385;BME280;30101;32.778;34.994;2022-08-21T05:19:08;96908.09;;;25.98;79.38
44385;BME280;30101;32.778;34.994;2022-08-21T05:24:13;96910.44;;;26.08;79.11
44385;BME280;30101;32.778;34.994;2022-08-21T05:29:17;96896.72;;;26.38;77.94
44385;BME280;30101;32.778;34.994;2022-08-21T05:34:23;96906.34;;;27.19;75.18
44385;BME280;30101;32.778;34.994;2022-08-21T05:39:33;96910.34;;;27.67;73.66
44385;BME280;30101;32.778;34.994;2022-08-21T05:45:04;96907.72;;;28.07;73.06
44385;BME280;30101;32.778;34.994;2022-08-21T05:50:08;96907.50;;;28.37;72.04
44385;BME280;30101;32.778;34.994;2022-08-21T05:55:12;96913.56;;;29.70;68.79
44385;BME280;30101;32.778;34.994;2022-08-21T06:00:16;96915.72;;;31.40;63.85
44385;BME280;30101;32.778;34.994;2022-08-21T06:05:20;96925.03;;;32.51;61.04
44385;BME280;30101;32.778;34.994;2022-08-21T06:10:39;96922.50;;;32.38;60.85
44385;BME280;30101;32.778;34.994;2022-08-21T06:15:44;96929.97;;;29.82;66.29
44385;BME280;30101;32.778;34.994;2022-08-21T06:20:48;96936.31;;;27.69;72.36
44385;BME280;30101;32.778;34.994;2022-08-21T06:25:52;96927.59;;;26.68;75.78
44385;BME280;30101;32.778;34.994;2022-08-21T06:30:58;96934.66;;;26.90;76.88
44385;BME280;30101;32.778;34.994;2022-08-21T06:36:01;96935.28;;;27.74;74.47
